createdAt,value
2023-03-10T00:00:00.529Z,92974.88
2023-03-10T00:00:57.095Z,92985.13
2023-03-10T00:01:53.682Z,92973.47
2023-03-10T00:02:50.552Z,92980.25
2023-03-10T00:03:47.409Z,92979.19
2023-03-10T00:04:44.066Z,92979.31
2023-03-10T00:05:40.816Z,92904.19
2023-03-10T00:06:38.551Z,92875.56
2023-03-10T00:07:35.196Z,92968.09
2023-03-10T00:08:31.918Z,92978.66
2023-03-10T00:09:28.489Z,92976.38
2023-03-10T00:10:25.133Z,92970.66
2023-03-10T00:11:22.520Z,92971.78
2023-03-10T00:12:19.305Z,92975.25
2023-03-10T00:13:15.886Z,92980.97
2023-03-10T00:14:12.592Z,92976.03
2023-03-10T00:15:10.145Z,92974.50
2023-03-10T00:16:07.839Z,92979.97
2023-03-10T00:17:05.135Z,92980.69
2023-03-10T00:18:01.683Z,92979.88
2023-03-10T00:18:58.431Z,92974.59
2023-03-10T00:19:55.076Z,92979.97
2023-03-10T00:20:53.544Z,92974.59
2023-03-10T00:21:50.190Z,92985.84
2023-03-10T00:22:46.953Z,92949.56
2023-03-10T00:23:44.005Z,92961.81
2023-03-10T00:24:40.651Z,92974.09
2023-03-10T00:25:37.274Z,92982.31
2023-03-10T00:26:34.025Z,92977.28
2023-03-10T00:27:30.676Z,92980.00
2023-03-10T00:28:28.139Z,92977.31
2023-03-10T00:29:24.882Z,92976.66
2023-03-10T00:30:21.582Z,92974.50
2023-03-10T00:31:23.415Z,92980.75
2023-03-10T00:32:20.227Z,92980.31
2023-03-10T00:33:16.902Z,92978.75
2023-03-10T00:34:13.557Z,92979.53
2023-03-10T00:35:10.435Z,92975.59
2023-03-10T00:36:13.564Z,92972.84
2023-03-10T00:37:10.303Z,92974.56
2023-03-10T00:38:07.033Z,92971.44
2023-03-10T00:39:05.363Z,92973.50
2023-03-10T00:40:02.122Z,92944.75
2023-03-10T00:41:00.496Z,92967.28
2023-03-10T00:41:57.173Z,92966.75
2023-03-10T00:42:55.124Z,92977.78
2023-03-10T00:43:52.801Z,92976.50
2023-03-10T00:44:49.467Z,92959.69
2023-03-10T00:45:46.060Z,92976.13
2023-03-10T00:46:42.856Z,92975.94
2023-03-10T00:47:39.574Z,92974.59
2023-03-10T00:48:36.354Z,92971.94
2023-03-10T00:49:32.945Z,92940.00
2023-03-10T00:50:29.557Z,92960.81
2023-03-10T00:51:26.128Z,92963.19
2023-03-10T00:52:22.723Z,92963.94
2023-03-10T00:53:19.665Z,92968.44
2023-03-10T00:54:16.278Z,92964.19
2023-03-10T00:55:13.057Z,92940.38
2023-03-10T00:56:25.008Z,92962.31
2023-03-10T00:57:21.660Z,92962.50
2023-03-10T00:58:18.386Z,92933.81
2023-03-10T00:59:15.052Z,92971.94
2023-03-10T01:00:14.907Z,92962.03
2023-03-10T01:01:18.500Z,92967.00
2023-03-10T01:02:15.140Z,92967.19
2023-03-10T01:03:11.762Z,92969.50
2023-03-10T01:04:12.897Z,92970.84
2023-03-10T01:05:11.118Z,92964.94
2023-03-10T01:06:07.824Z,92964.00
2023-03-10T01:07:04.385Z,92969.41
2023-03-10T01:08:00.935Z,92952.16
2023-03-10T01:08:57.640Z,92969.75
2023-03-10T01:09:54.239Z,92961.03
2023-03-10T01:10:51.655Z,92966.44
2023-03-10T01:11:49.178Z,92972.78
2023-03-10T01:12:45.837Z,92968.16
2023-03-10T01:13:43.296Z,92960.13
2023-03-10T01:14:40.016Z,92974.03
2023-03-10T01:15:36.592Z,92955.25
2023-03-10T01:16:33.785Z,92968.25
2023-03-10T01:17:30.454Z,92962.50
2023-03-10T01:18:27.173Z,92963.75
2023-03-10T01:19:23.796Z,92962.31
2023-03-10T01:20:20.553Z,92955.00
2023-03-10T01:21:23.816Z,92957.69
2023-03-10T01:22:20.495Z,92898.69
2023-03-10T01:23:23.494Z,92956.69
2023-03-10T01:24:20.276Z,92956.75
2023-03-10T01:25:16.926Z,92949.03
2023-03-10T01:26:13.729Z,92945.63
2023-03-10T01:27:10.350Z,92941.22
2023-03-10T01:28:07.020Z,92944.00
2023-03-10T01:29:03.739Z,92941.72
2023-03-10T01:30:00.347Z,92949.66
2023-03-10T01:30:57.030Z,92958.06
2023-03-10T01:31:53.756Z,92956.09
2023-03-10T01:32:50.476Z,92936.63
2023-03-10T01:33:48.058Z,92860.44
2023-03-10T01:34:44.868Z,92952.09
2023-03-10T01:35:42.109Z,92952.09
2023-03-10T01:36:41.696Z,92951.06
2023-03-10T01:37:38.360Z,92954.84
2023-03-10T01:38:35.562Z,92958.25
2023-03-10T01:39:32.247Z,92949.78
2023-03-10T01:40:29.604Z,92924.16
2023-03-10T01:41:26.609Z,92950.31
2023-03-10T01:42:23.484Z,92945.75
2023-03-10T01:43:19.989Z,92953.97
2023-03-10T01:44:20.132Z,92953.84
2023-03-10T01:45:16.715Z,92966.13
2023-03-10T01:46:31.652Z,92962.34
2023-03-10T01:47:28.868Z,92962.00
2023-03-10T01:48:25.519Z,92936.22
2023-03-10T01:49:32.520Z,92957.50
2023-03-10T01:50:29.371Z,92959.03
2023-03-10T01:51:26.732Z,92967.19
2023-03-10T01:52:26.855Z,92957.09
2023-03-10T01:53:25.685Z,92963.28
2023-03-10T01:54:28.881Z,92967.59
2023-03-10T01:55:30.228Z,92971.81
2023-03-10T01:56:27.025Z,92972.63
2023-03-10T01:57:29.844Z,92958.50
2023-03-10T01:58:32.660Z,92952.31
2023-03-10T01:59:30.071Z,92963.50
2023-03-10T02:00:29.534Z,92927.69
2023-03-10T02:01:26.286Z,92972.31
2023-03-10T02:02:24.840Z,92973.13
2023-03-10T02:03:41.004Z,92969.75
2023-03-10T02:04:44.457Z,92964.09
2023-03-10T02:06:09.701Z,92970.66
2023-03-10T02:07:06.982Z,92964.53
2023-03-10T02:08:04.657Z,92962.56
2023-03-10T02:09:04.130Z,92956.16
2023-03-10T02:10:00.935Z,92940.44
2023-03-10T02:10:59.481Z,92955.03
2023-03-10T02:11:58.629Z,92951.69
2023-03-10T02:12:55.357Z,92953.59
2023-03-10T02:13:53.124Z,92855.97
2023-03-10T02:14:52.687Z,92928.94
2023-03-10T02:15:51.127Z,92962.31
2023-03-10T02:16:47.857Z,92953.25
2023-03-10T02:17:44.925Z,92934.91
2023-03-10T02:18:44.257Z,92957.16
2023-03-10T02:19:58.240Z,92947.28
2023-03-10T02:21:13.643Z,92950.19
2023-03-10T02:22:12.473Z,92936.50
2023-03-10T02:23:12.570Z,92942.59
2023-03-10T02:24:32.036Z,92944.78
2023-03-10T02:25:49.102Z,92947.94
2023-03-10T02:27:01.532Z,92946.06
2023-03-10T02:27:58.869Z,92945.59
2023-03-10T02:28:58.339Z,92920.25
2023-03-10T02:30:01.217Z,92941.38
2023-03-10T02:30:58.375Z,92942.50
2023-03-10T02:31:57.138Z,92915.56
2023-03-10T02:32:57.876Z,92942.03
2023-03-10T02:33:55.597Z,92947.06
2023-03-10T02:34:52.236Z,92941.66
2023-03-10T02:35:49.374Z,92942.03
2023-03-10T02:36:46.231Z,92899.78
2023-03-10T02:37:42.920Z,92903.97
2023-03-10T02:38:39.481Z,92917.13
2023-03-10T02:39:36.100Z,92938.88
2023-03-10T02:40:45.161Z,92938.41
2023-03-10T02:41:44.997Z,92943.00
2023-03-10T02:42:42.046Z,92937.56
2023-03-10T02:43:38.682Z,92945.34
2023-03-10T02:44:35.854Z,92940.75
2023-03-10T02:45:35.852Z,92948.69
2023-03-10T02:46:32.647Z,92908.47
2023-03-10T02:47:29.402Z,92922.34
2023-03-10T02:48:33.311Z,92891.50
2023-03-10T02:49:30.394Z,92937.22
2023-03-10T02:50:30.175Z,92942.19
2023-03-10T02:51:31.020Z,92945.66
2023-03-10T02:53:01.907Z,92942.03
2023-03-10T02:54:00.384Z,92947.44
2023-03-10T02:54:57.498Z,92943.09
2023-03-10T02:55:55.080Z,92951.75
2023-03-10T02:56:51.748Z,92958.88
2023-03-10T02:57:49.039Z,92956.63
2023-03-10T02:58:45.612Z,92959.56
2023-03-10T02:59:42.338Z,92964.84
2023-03-10T03:00:45.261Z,92932.16
2023-03-10T03:01:41.936Z,92965.69
2023-03-10T03:02:39.053Z,92933.81
2023-03-10T03:03:35.823Z,92963.88
2023-03-10T03:04:32.951Z,92967.50
2023-03-10T03:05:29.824Z,92960.47
2023-03-10T03:06:27.154Z,92954.63
2023-03-10T03:07:23.719Z,92957.13
2023-03-10T03:08:21.124Z,92966.50
2023-03-10T03:09:17.725Z,92967.28
2023-03-10T03:10:14.287Z,92957.47
2023-03-10T03:11:11.070Z,92962.72
2023-03-10T03:12:08.230Z,92967.19
2023-03-10T03:13:05.651Z,92966.78
2023-03-10T03:14:02.250Z,92963.84
2023-03-10T03:14:58.857Z,92972.16
2023-03-10T03:15:55.489Z,92975.03
2023-03-10T03:16:52.089Z,92917.13
2023-03-10T03:17:48.931Z,92975.53
2023-03-10T03:18:45.614Z,92975.59
2023-03-10T03:19:42.204Z,92974.59
2023-03-10T03:20:41.026Z,92977.41
2023-03-10T03:21:37.834Z,92969.47
2023-03-10T03:22:34.516Z,92979.50
2023-03-10T03:23:31.054Z,92941.88
2023-03-10T03:24:27.972Z,92969.72
2023-03-10T03:25:26.673Z,92971.38
2023-03-10T03:26:25.302Z,92977.75
2023-03-10T03:27:21.885Z,92971.97
2023-03-10T03:28:18.583Z,92929.72
2023-03-10T03:29:15.359Z,92964.31
2023-03-10T03:30:16.094Z,92967.03
2023-03-10T03:31:22.342Z,92940.78
2023-03-10T03:32:19.022Z,92967.34
2023-03-10T03:33:15.661Z,92954.56
2023-03-10T03:34:12.495Z,92962.72
2023-03-10T03:35:15.946Z,92948.03
2023-03-10T03:36:13.605Z,92958.44
2023-03-10T03:37:10.224Z,92958.34
2023-03-10T03:38:07.387Z,92957.56
2023-03-10T03:39:07.111Z,92944.63
2023-03-10T03:40:12.834Z,92913.63
2023-03-10T03:41:10.265Z,92951.41
2023-03-10T03:42:07.379Z,92874.81
2023-03-10T03:43:05.008Z,92948.22
2023-03-10T03:44:01.599Z,92944.72
2023-03-10T03:44:58.188Z,92953.13
2023-03-10T03:45:54.923Z,92951.31
2023-03-10T03:46:51.565Z,92950.19
2023-03-10T03:47:48.479Z,92947.72
2023-03-10T03:48:45.095Z,92949.19
2023-03-10T03:49:41.880Z,92953.38
2023-03-10T03:50:38.463Z,92950.66
2023-03-10T03:51:36.622Z,92914.34
2023-03-10T03:52:33.752Z,92958.31
2023-03-10T03:53:30.740Z,92956.59
2023-03-10T03:54:27.289Z,92943.88
2023-03-10T03:55:23.867Z,92961.13
2023-03-10T03:56:20.454Z,92959.22
2023-03-10T03:57:17.088Z,92958.09
2023-03-10T03:58:13.639Z,92958.22
2023-03-10T03:59:10.331Z,92959.44
2023-03-10T04:00:09.177Z,92971.22
2023-03-10T04:01:05.866Z,92951.88
2023-03-10T04:02:02.668Z,92958.44
2023-03-10T04:02:59.311Z,92952.03
2023-03-10T04:03:56.023Z,92957.19
2023-03-10T04:04:55.815Z,92958.16
2023-03-10T04:05:52.815Z,92958.66
2023-03-10T04:06:49.349Z,92957.94
2023-03-10T04:07:48.326Z,92961.03
2023-03-10T04:08:45.022Z,92940.69
2023-03-10T04:09:43.059Z,92958.66
2023-03-10T04:10:39.609Z,92972.63
2023-03-10T04:11:36.754Z,92967.81
2023-03-10T04:12:33.593Z,92953.44
2023-03-10T04:13:30.189Z,92963.69
2023-03-10T04:14:26.871Z,92931.09
2023-03-10T04:15:23.786Z,92953.69
2023-03-10T04:16:20.648Z,92953.47
2023-03-10T04:17:17.445Z,92928.34
2023-03-10T04:18:14.091Z,92950.31
2023-03-10T04:19:10.726Z,92950.41
2023-03-10T04:20:10.032Z,92953.28
2023-03-10T04:21:06.684Z,92947.69
2023-03-10T04:22:03.457Z,92934.34
2023-03-10T04:23:02.116Z,92950.34
2023-03-10T04:23:58.741Z,92953.19
2023-03-10T04:24:55.438Z,92954.34
2023-03-10T04:25:52.190Z,92947.88
2023-03-10T04:26:48.917Z,92936.28
2023-03-10T04:27:45.556Z,92950.53
2023-03-10T04:28:42.193Z,92947.06
2023-03-10T04:29:39.141Z,92949.28
2023-03-10T04:30:35.746Z,92942.94
2023-03-10T04:31:32.470Z,92956.84
2023-03-10T04:32:29.182Z,92944.88
2023-03-10T04:33:25.881Z,92919.59
2023-03-10T04:34:22.507Z,92948.75
2023-03-10T04:35:19.196Z,92951.13
2023-03-10T04:36:16.770Z,92948.75
2023-03-10T04:37:13.516Z,92952.19
2023-03-10T04:38:10.412Z,92947.63
2023-03-10T04:39:07.158Z,92951.13
2023-03-10T04:40:08.397Z,92925.22
2023-03-10T04:41:05.289Z,92946.91
2023-03-10T04:42:01.948Z,92940.78
2023-03-10T04:42:58.531Z,92937.91
2023-03-10T04:43:55.077Z,92941.34
2023-03-10T04:44:52.382Z,92946.28
2023-03-10T04:45:49.248Z,92947.00
2023-03-10T04:46:45.891Z,92939.97
2023-03-10T04:47:42.656Z,92938.03
2023-03-10T04:48:39.964Z,92935.03
2023-03-10T04:49:37.388Z,92938.78
2023-03-10T04:50:33.980Z,92933.44
2023-03-10T04:51:30.675Z,92934.09
2023-03-10T04:52:27.300Z,92928.72
2023-03-10T04:53:24.033Z,92938.59
2023-03-10T04:54:20.662Z,92825.50
2023-03-10T04:55:17.612Z,92939.19
2023-03-10T04:56:14.470Z,92932.28
2023-03-10T04:57:11.034Z,92931.50
2023-03-10T04:58:07.661Z,92927.25
2023-03-10T04:59:04.357Z,92926.91
2023-03-10T05:00:02.869Z,92908.97
2023-03-10T05:01:03.576Z,92926.91
2023-03-10T05:02:00.597Z,92846.63
2023-03-10T05:02:57.357Z,92916.78
2023-03-10T05:03:54.503Z,92870.72
2023-03-10T05:04:51.308Z,92904.28
2023-03-10T05:05:47.959Z,92868.63
2023-03-10T05:06:44.552Z,92910.13
2023-03-10T05:07:41.394Z,92885.81
2023-03-10T05:08:37.962Z,92829.53
2023-03-10T05:09:36.940Z,92910.56
2023-03-10T05:10:33.643Z,92910.66
2023-03-10T05:11:31.033Z,92918.19
2023-03-10T05:12:27.766Z,92909.28
2023-03-10T05:13:24.435Z,92901.56
2023-03-10T05:14:21.211Z,92915.44
2023-03-10T05:15:17.844Z,92905.03
2023-03-10T05:16:20.949Z,92913.50
2023-03-10T05:17:17.639Z,92913.13
2023-03-10T05:18:14.418Z,92911.63
2023-03-10T05:19:11.100Z,92906.88
2023-03-10T05:20:09.693Z,92909.16
2023-03-10T05:21:06.345Z,92906.44
2023-03-10T05:22:04.856Z,92912.19
2023-03-10T05:23:02.174Z,92905.97
2023-03-10T05:23:58.837Z,92908.97
2023-03-10T05:24:55.484Z,92906.59
2023-03-10T05:25:52.120Z,92902.06
2023-03-10T05:26:48.780Z,92908.47
2023-03-10T05:27:45.366Z,92901.63
2023-03-10T05:28:42.124Z,92905.63
2023-03-10T05:29:39.665Z,92877.69
2023-03-10T05:30:36.351Z,92870.81
2023-03-10T05:31:33.068Z,92908.59
2023-03-10T05:32:29.749Z,92892.56
2023-03-10T05:33:26.457Z,92911.81
2023-03-10T05:34:25.411Z,92906.94
2023-03-10T05:35:22.016Z,92873.09
2023-03-10T05:36:18.837Z,92891.03
2023-03-10T05:37:15.506Z,92910.34
2023-03-10T05:38:12.117Z,92913.22
2023-03-10T05:39:09.567Z,92909.53
2023-03-10T05:40:13.660Z,92907.28
2023-03-10T05:41:11.179Z,92907.91
2023-03-10T05:42:07.853Z,92923.56
2023-03-10T05:43:04.436Z,92904.28
2023-03-10T05:44:01.146Z,92904.28
2023-03-10T05:44:57.716Z,92899.38
2023-03-10T05:45:58.930Z,92910.50
2023-03-10T05:46:55.665Z,92878.13
2023-03-10T05:47:52.287Z,92888.03
2023-03-10T05:48:49.096Z,92863.97
2023-03-10T05:49:45.935Z,92789.16
2023-03-10T05:50:42.465Z,92882.16
2023-03-10T05:51:39.218Z,92885.72
2023-03-10T05:52:40.496Z,92877.88
2023-03-10T05:53:38.048Z,92884.84
2023-03-10T05:54:34.686Z,92884.09
2023-03-10T05:55:31.336Z,92878.78
2023-03-10T05:56:28.064Z,92882.22
2023-03-10T05:57:24.692Z,92879.13
2023-03-10T05:58:21.790Z,92845.06
2023-03-10T05:59:18.480Z,92882.72
2023-03-10T06:00:16.024Z,92848.09
2023-03-10T06:01:13.299Z,92879.06
2023-03-10T06:02:10.070Z,92879.84
2023-03-10T06:03:06.751Z,92884.84
2023-03-10T06:04:03.975Z,92846.94
2023-03-10T06:05:00.655Z,92889.88
2023-03-10T06:05:58.391Z,92887.97
2023-03-10T06:06:56.227Z,92888.44
2023-03-10T06:07:52.926Z,92891.94
2023-03-10T06:08:49.798Z,92893.94
2023-03-10T06:09:46.542Z,92886.06
2023-03-10T06:10:43.196Z,92887.28
2023-03-10T06:11:39.802Z,92893.84
2023-03-10T06:12:36.703Z,92897.00
2023-03-10T06:13:33.475Z,92898.66
2023-03-10T06:14:30.070Z,92882.22
2023-03-10T06:15:26.918Z,92893.78
2023-03-10T06:16:23.550Z,92897.16
2023-03-10T06:17:20.172Z,92898.19
2023-03-10T06:18:17.654Z,92892.50
2023-03-10T06:19:14.220Z,92897.53
2023-03-10T06:20:10.951Z,92896.81
2023-03-10T06:21:10.477Z,92901.81
2023-03-10T06:22:07.175Z,92896.53
2023-03-10T06:23:03.775Z,92880.09
2023-03-10T06:24:00.671Z,92896.69
2023-03-10T06:24:57.332Z,92886.31
2023-03-10T06:26:03.085Z,92898.25
2023-03-10T06:26:59.656Z,92887.53
2023-03-10T06:27:56.210Z,92897.63
2023-03-10T06:28:52.881Z,92896.50
2023-03-10T06:29:50.417Z,92897.66
2023-03-10T06:30:54.935Z,92898.41
2023-03-10T06:31:51.733Z,92906.88
2023-03-10T06:32:48.435Z,92906.56
2023-03-10T06:33:45.142Z,92895.50
2023-03-10T06:34:41.817Z,92890.72
2023-03-10T06:35:38.413Z,92895.09
2023-03-10T06:36:37.391Z,92896.09
2023-03-10T06:37:34.131Z,92895.63
2023-03-10T06:38:30.821Z,92890.53
2023-03-10T06:39:29.133Z,92891.84
2023-03-10T06:40:26.130Z,92896.84
2023-03-10T06:41:22.767Z,92896.50
2023-03-10T06:42:19.495Z,92903.00
2023-03-10T06:43:16.234Z,92903.41
2023-03-10T06:44:18.813Z,92896.19
2023-03-10T06:45:17.223Z,92909.81
2023-03-10T06:46:15.306Z,92910.19
2023-03-10T06:47:11.881Z,92908.72
2023-03-10T06:48:08.677Z,92912.13
2023-03-10T06:49:05.261Z,92915.25
2023-03-10T06:50:02.968Z,92901.88
2023-03-10T06:50:59.660Z,92920.19
2023-03-10T06:51:56.404Z,92877.22
2023-03-10T06:52:53.374Z,92916.63
2023-03-10T06:53:50.126Z,92916.16
2023-03-10T06:54:46.746Z,92914.69
2023-03-10T06:55:43.559Z,92909.91
2023-03-10T06:56:40.176Z,92901.16
2023-03-10T06:57:37.941Z,92900.09
2023-03-10T06:58:36.356Z,92894.44
2023-03-10T06:59:33.040Z,92900.63
2023-03-10T07:00:29.899Z,92890.44
2023-03-10T07:01:32.075Z,92892.75
2023-03-10T07:02:28.745Z,92898.50
2023-03-10T07:03:26.418Z,92862.19
2023-03-10T07:04:23.060Z,92889.81
2023-03-10T07:05:19.801Z,92884.06
2023-03-10T07:06:16.531Z,92893.63
2023-03-10T07:07:14.822Z,92897.53
2023-03-10T07:08:11.530Z,92847.72
2023-03-10T07:09:08.166Z,92902.41
2023-03-10T07:10:08.156Z,92901.44
2023-03-10T07:11:05.149Z,92886.25
2023-03-10T07:12:01.906Z,92860.59
2023-03-10T07:12:59.122Z,92896.78
2023-03-10T07:13:55.811Z,92889.09
2023-03-10T07:14:52.539Z,92904.00
2023-03-10T07:15:49.242Z,92894.13
2023-03-10T07:16:46.759Z,92895.03
2023-03-10T07:17:43.511Z,92893.72
2023-03-10T07:18:40.552Z,92892.81
2023-03-10T07:19:37.526Z,92892.00
2023-03-10T07:20:34.214Z,92862.84
2023-03-10T07:21:31.723Z,92891.59
2023-03-10T07:22:28.336Z,92889.78
2023-03-10T07:23:25.676Z,92887.44
2023-03-10T07:24:22.573Z,92845.66
2023-03-10T07:25:19.555Z,92889.84
2023-03-10T07:26:18.750Z,92894.84
2023-03-10T07:27:15.474Z,92891.63
2023-03-10T07:28:12.232Z,92894.06
2023-03-10T07:29:09.198Z,92886.63
2023-03-10T07:30:06.703Z,92871.03
2023-03-10T07:31:05.119Z,92893.69
2023-03-10T07:32:01.791Z,92889.44
2023-03-10T07:32:58.382Z,92889.97
2023-03-10T07:33:55.078Z,92894.13
2023-03-10T07:34:52.086Z,92889.50
2023-03-10T07:35:48.819Z,92879.69
2023-03-10T07:36:45.598Z,92883.63
2023-03-10T07:37:42.300Z,92888.72
2023-03-10T07:38:39.173Z,92885.44
2023-03-10T07:39:35.713Z,92888.06
2023-03-10T07:40:32.429Z,92887.75
2023-03-10T07:41:29.061Z,92887.75
2023-03-10T07:42:25.694Z,92891.94
2023-03-10T07:43:22.286Z,92892.66
2023-03-10T07:44:19.057Z,92825.53
2023-03-10T07:45:15.699Z,92891.13
2023-03-10T07:46:14.649Z,92885.78
2023-03-10T07:47:11.413Z,92883.16
2023-03-10T07:48:08.057Z,92870.97
2023-03-10T07:49:05.039Z,92842.25
2023-03-10T07:50:01.990Z,92888.91
2023-03-10T07:50:59.333Z,92875.94
2023-03-10T07:51:56.119Z,92873.59
2023-03-10T07:52:53.084Z,92864.84
2023-03-10T07:53:49.862Z,92864.06
2023-03-10T07:54:47.003Z,92865.19
2023-03-10T07:55:43.794Z,92855.72
2023-03-10T07:56:40.378Z,92853.84
2023-03-10T07:57:37.113Z,92850.00
2023-03-10T07:58:34.476Z,92853.44
2023-03-10T07:59:31.205Z,92838.53
2023-03-10T08:00:28.389Z,92816.72
2023-03-10T08:01:25.235Z,92833.94
2023-03-10T08:02:21.864Z,92828.94
2023-03-10T08:03:18.617Z,92794.84
2023-03-10T08:04:17.247Z,92824.31
2023-03-10T08:05:15.031Z,92818.22
2023-03-10T08:06:26.972Z,92816.28
2023-03-10T08:07:25.852Z,92815.94
2023-03-10T08:08:23.269Z,92789.16
2023-03-10T08:09:19.865Z,92817.78
2023-03-10T08:10:16.591Z,92794.06
2023-03-10T08:11:13.356Z,92769.22
2023-03-10T08:12:10.270Z,92810.53
2023-03-10T08:13:06.855Z,92714.63
2023-03-10T08:14:04.383Z,92815.56
2023-03-10T08:15:01.146Z,92806.75
2023-03-10T08:16:00.172Z,92817.06
2023-03-10T08:16:57.698Z,92806.34
2023-03-10T08:17:54.666Z,92797.53
2023-03-10T08:18:53.747Z,92806.31
2023-03-10T08:19:50.477Z,92805.91
2023-03-10T08:20:47.032Z,92782.56
2023-03-10T08:21:44.010Z,92802.50
2023-03-10T08:22:40.635Z,92800.94
2023-03-10T08:23:38.257Z,92765.38
2023-03-10T08:24:36.634Z,92795.22
2023-03-10T08:25:33.272Z,92797.16
2023-03-10T08:26:29.853Z,92788.72
2023-03-10T08:27:29.011Z,92759.56
2023-03-10T08:28:28.863Z,92783.72
2023-03-10T08:29:25.511Z,92781.81
2023-03-10T08:30:22.172Z,92785.69
2023-03-10T08:31:20.699Z,92783.31
2023-03-10T08:32:18.009Z,92781.06
2023-03-10T08:33:14.747Z,92781.09
2023-03-10T08:34:11.352Z,92771.53
2023-03-10T08:35:08.523Z,92778.81
2023-03-10T08:36:09.630Z,92765.38
2023-03-10T08:37:06.528Z,92747.47
2023-03-10T08:38:04.341Z,92776.50
2023-03-10T08:39:01.097Z,92707.72
2023-03-10T08:39:58.949Z,92776.53
2023-03-10T08:40:55.703Z,92776.16
2023-03-10T08:41:54.677Z,92771.19
2023-03-10T08:42:51.681Z,92765.84
2023-03-10T08:43:50.629Z,92764.31
2023-03-10T08:44:47.298Z,92768.06
2023-03-10T08:45:43.970Z,92763.88
2023-03-10T08:46:46.596Z,92771.50
2023-03-10T08:47:44.095Z,92769.97
2023-03-10T08:48:42.747Z,92749.78
2023-03-10T08:49:41.293Z,92766.91
2023-03-10T08:50:39.796Z,92773.78
2023-03-10T08:51:36.645Z,92773.44
2023-03-10T08:52:33.514Z,92769.22
2023-03-10T08:53:30.278Z,92776.44
2023-03-10T08:54:27.500Z,92765.72
2023-03-10T08:55:24.879Z,92768.06
2023-03-10T08:56:22.808Z,92767.72
2023-03-10T08:57:19.434Z,92766.53
2023-03-10T08:58:16.897Z,92770.00
2023-03-10T08:59:13.650Z,92765.44
2023-03-10T09:00:13.031Z,92771.91
2023-03-10T09:01:12.225Z,92768.09
2023-03-10T09:02:12.268Z,92757.03
2023-03-10T09:03:15.390Z,92742.13
2023-03-10T09:04:12.265Z,92764.22
2023-03-10T09:05:10.491Z,92763.06
2023-03-10T09:06:07.590Z,92765.41
2023-03-10T09:07:04.289Z,92756.19
2023-03-10T09:08:01.012Z,92733.25
2023-03-10T09:08:57.923Z,92735.88
2023-03-10T09:09:54.636Z,92747.34
2023-03-10T09:10:51.304Z,92726.75
2023-03-10T09:11:47.891Z,92738.97
2023-03-10T09:12:44.580Z,92700.19
2023-03-10T09:13:41.398Z,92708.88
2023-03-10T09:14:38.563Z,92702.66
2023-03-10T09:15:41.023Z,92744.03
2023-03-10T09:16:39.566Z,92744.44
2023-03-10T09:17:38.256Z,92754.75
2023-03-10T09:18:36.289Z,92720.91
2023-03-10T09:19:33.137Z,92750.22
2023-03-10T09:20:29.826Z,92750.06
2023-03-10T09:21:31.949Z,92754.78
2023-03-10T09:22:29.835Z,92748.56
2023-03-10T09:23:26.479Z,92750.25
2023-03-10T09:24:24.969Z,92746.88
2023-03-10T09:25:22.417Z,92747.13
2023-03-10T09:26:20.251Z,92700.88
2023-03-10T09:27:16.887Z,92738.78
2023-03-10T09:28:13.571Z,92744.50
2023-03-10T09:29:10.412Z,92673.72
2023-03-10T09:30:07.426Z,92736.28
2023-03-10T09:31:05.981Z,92736.31
2023-03-10T09:32:02.578Z,92742.53
2023-03-10T09:32:59.222Z,92737.16
2023-03-10T09:33:55.905Z,92733.41
2023-03-10T09:34:52.465Z,92739.19
2023-03-10T09:36:05.941Z,92726.59
2023-03-10T09:37:03.682Z,92675.88
2023-03-10T09:38:00.398Z,92704.09
2023-03-10T09:38:58.241Z,92727.31
2023-03-10T09:39:54.886Z,92711.19
2023-03-10T09:41:20.734Z,92723.84
2023-03-10T09:42:26.035Z,92713.63
2023-03-10T09:43:38.616Z,92717.84
2023-03-10T09:44:50.592Z,92719.03
2023-03-10T09:46:15.088Z,92713.94
2023-03-10T09:47:42.935Z,92714.44
2023-03-10T09:48:45.568Z,92720.94
2023-03-10T09:50:23.898Z,92720.88
2023-03-10T09:51:27.663Z,92711.22
2023-03-10T09:52:36.809Z,92707.41
2023-03-10T09:53:56.960Z,92700.13
2023-03-10T09:55:06.475Z,92695.06
2023-03-10T09:56:15.738Z,92671.56
2023-03-10T09:57:18.911Z,92652.13
2023-03-10T09:58:26.592Z,92697.22
2023-03-10T09:59:37.464Z,92679.22
2023-03-10T10:00:39.141Z,92698.44
2023-03-10T10:01:36.622Z,92688.88
2023-03-10T10:02:39.197Z,92667.69
2023-03-10T10:03:51.459Z,92696.81
2023-03-10T10:04:53.580Z,92680.41
2023-03-10T10:05:56.303Z,92691.16
2023-03-10T10:06:53.096Z,92601.75
2023-03-10T10:07:55.179Z,92652.50
2023-03-10T10:09:05.530Z,92682.44
2023-03-10T10:10:27.565Z,92676.69
2023-03-10T10:11:24.363Z,92676.13
2023-03-10T10:12:25.007Z,92634.19
2023-03-10T10:13:25.264Z,92675.72
2023-03-10T10:14:31.805Z,92676.13
2023-03-10T10:15:34.928Z,92676.28
2023-03-10T10:16:42.493Z,92673.84
2023-03-10T10:17:55.024Z,92681.06
2023-03-10T10:19:06.874Z,92677.50
2023-03-10T10:20:07.165Z,92684.63
2023-03-10T10:21:13.108Z,92684.81
2023-03-10T10:22:15.782Z,92688.28
2023-03-10T10:23:20.078Z,92688.66
2023-03-10T10:24:18.259Z,92679.13
2023-03-10T10:25:23.790Z,92684.19
2023-03-10T10:26:26.476Z,92679.53
2023-03-10T10:27:25.150Z,92651.03
2023-03-10T10:28:32.928Z,92669.03
2023-03-10T10:29:36.564Z,92643.06
2023-03-10T10:30:35.022Z,92680.28
2023-03-10T10:31:35.567Z,92677.31
2023-03-10T10:32:32.776Z,92672.78
2023-03-10T10:33:29.648Z,92670.38
2023-03-10T10:34:26.253Z,92657.25
2023-03-10T10:35:25.394Z,92668.03
2023-03-10T10:36:25.296Z,92667.81
2023-03-10T10:37:43.086Z,92666.75
2023-03-10T10:38:39.755Z,92658.81
2023-03-10T10:39:42.482Z,92652.28
2023-03-10T10:40:59.427Z,92650.94
2023-03-10T10:42:20.173Z,92646.84
2023-03-10T10:43:18.978Z,92646.06
2023-03-10T10:44:17.504Z,92643.22
2023-03-10T10:45:35.387Z,92647.06
2023-03-10T10:46:32.906Z,92645.94
2023-03-10T10:47:37.291Z,92639.03
2023-03-10T10:48:43.058Z,92648.69
2023-03-10T10:49:39.762Z,92641.75
2023-03-10T10:50:37.617Z,92645.56
2023-03-10T10:51:37.585Z,92645.53
2023-03-10T10:52:34.173Z,92652.06
2023-03-10T10:53:35.536Z,92642.25
2023-03-10T10:54:39.102Z,92654.94
2023-03-10T10:55:35.832Z,92642.72
2023-03-10T10:56:32.529Z,92648.84
2023-03-10T10:57:35.333Z,92652.69
2023-03-10T10:58:33.721Z,92609.50
2023-03-10T10:59:35.507Z,92652.69
2023-03-10T11:00:38.339Z,92618.28
2023-03-10T11:01:48.598Z,92648.50
2023-03-10T11:02:46.306Z,92654.59
2023-03-10T11:03:46.789Z,92627.84
2023-03-10T11:04:46.038Z,92647.69
2023-03-10T11:05:42.737Z,92644.25
2023-03-10T11:06:39.528Z,92651.88
2023-03-10T11:07:36.138Z,92647.72
2023-03-10T11:08:37.539Z,92650.00
2023-03-10T11:09:34.115Z,92644.97
2023-03-10T11:10:33.338Z,92655.22
2023-03-10T11:11:48.318Z,92648.28
2023-03-10T11:13:35.699Z,92638.75
2023-03-10T11:14:49.802Z,92648.59
2023-03-10T11:16:11.919Z,92635.63
2023-03-10T11:17:42.997Z,92626.94
2023-03-10T11:18:51.149Z,92614.38
2023-03-10T11:19:57.241Z,92632.34
2023-03-10T11:21:12.839Z,92637.97
2023-03-10T11:22:27.914Z,92631.47
2023-03-10T11:23:34.703Z,92625.75
2023-03-10T11:24:36.398Z,92628.84
2023-03-10T11:25:38.934Z,92622.72
2023-03-10T11:26:41.208Z,92630.34
2023-03-10T11:27:49.820Z,92627.22
2023-03-10T11:29:18.876Z,92618.81
2023-03-10T11:30:22.824Z,92621.81
2023-03-10T11:31:23.545Z,92620.22
2023-03-10T11:32:38.535Z,92615.69
2023-03-10T11:33:35.174Z,92613.00